createdAt,value
2022-08-05T00:00:06.432Z,24.50
2022-08-05T00:02:51.458Z,24.50
2022-08-05T00:06:06.680Z,24.50
2022-08-05T00:08:38.453Z,24.50
2022-08-05T00:11:30.347Z,24.50
2022-08-05T00:14:21.438Z,24.50
2022-08-05T00:17:19.603Z,24.50
2022-08-05T00:20:02.360Z,24.50
2022-08-05T00:22:57.391Z,24.50
2022-08-05T00:25:47.446Z,24.40
2022-08-05T00:28:34.446Z,24.40
2022-08-05T00:31:54.290Z,24.40
2022-08-05T00:34:53.818Z,24.50
2022-08-05T00:37:50.721Z,24.40
2022-08-05T00:40:31.422Z,24.40
2022-08-05T00:43:18.436Z,24.40
2022-08-05T00:46:12.421Z,24.40
2022-08-05T00:49:01.449Z,24.40
2022-08-05T00:51:51.909Z,24.40
2022-08-05T00:54:38.445Z,24.30
2022-08-05T00:57:31.699Z,24.40
2022-08-05T01:00:25.988Z,24.30
2022-08-05T01:03:07.805Z,24.30
2022-08-05T01:05:55.053Z,24.30
2022-08-05T01:08:42.724Z,24.30
2022-08-05T01:11:37.379Z,24.30
2022-08-05T01:14:40.503Z,24.30
2022-08-05T01:17:43.935Z,24.20
2022-08-05T01:20:48.805Z,24.30
2022-08-05T01:24:13.276Z,24.20
2022-08-05T01:27:19.677Z,24.30
2022-08-05T01:30:19.067Z,24.20
2022-08-05T01:33:25.251Z,24.20
2022-08-05T01:36:07.446Z,24.20
2022-08-05T01:39:01.600Z,24.20
2022-08-05T01:41:50.460Z,24.20
2022-08-05T01:44:35.734Z,24.20
2022-08-05T01:47:38.633Z,24.20
2022-08-05T01:50:40.070Z,24.20
2022-08-05T01:53:55.017Z,24.10
2022-08-05T01:58:29.499Z,24.10
2022-08-05T01:59:47.194Z,24.10
2022-08-05T02:02:37.537Z,24.10
2022-08-05T02:05:28.638Z,24.10
2022-08-05T02:08:15.456Z,24.10
2022-08-05T02:11:16.445Z,24.00
2022-08-05T02:14:18.468Z,24.00
2022-08-05T02:17:17.080Z,24.00
2022-08-05T02:20:20.700Z,24.00
2022-08-05T02:23:14.904Z,24.00
2022-08-05T02:26:04.473Z,24.00
2022-08-05T02:28:54.459Z,24.00
2022-08-05T02:31:36.525Z,23.90
2022-08-05T02:34:24.467Z,24.00
2022-08-05T02:37:17.483Z,23.90
2022-08-05T02:40:04.466Z,24.00
2022-08-05T02:42:58.450Z,23.90
2022-08-05T02:45:57.462Z,23.90
2022-08-05T02:48:55.466Z,23.90
2022-08-05T02:52:04.088Z,23.90
2022-08-05T02:54:50.784Z,23.80
2022-08-05T02:58:10.667Z,23.90
2022-08-05T03:00:45.992Z,23.80
2022-08-05T03:04:03.466Z,23.80
2022-08-05T03:06:56.393Z,23.80
2022-08-05T03:09:51.502Z,23.80
2022-08-05T03:12:38.540Z,23.80
2022-08-05T03:15:27.465Z,23.80
2022-08-05T03:18:08.524Z,23.80
2022-08-05T03:20:56.450Z,23.80
2022-08-05T03:23:38.537Z,23.80
2022-08-05T03:26:31.659Z,23.80
2022-08-05T03:29:12.513Z,23.80
2022-08-05T03:32:04.463Z,23.80
2022-08-05T03:34:57.462Z,23.70
2022-08-05T03:37:46.692Z,23.70
2022-08-05T03:40:32.418Z,23.70
2022-08-05T03:44:08.853Z,23.70
2022-08-05T03:46:26.839Z,23.70
2022-08-05T03:49:24.217Z,23.60
2022-08-05T03:52:49.444Z,23.70
2022-08-05T03:56:09.275Z,23.70
2022-08-05T03:58:41.471Z,23.60
2022-08-05T04:01:25.621Z,23.60
2022-08-05T04:04:13.485Z,23.60
2022-08-05T04:06:57.594Z,23.60
2022-08-05T04:09:53.614Z,23.60
2022-08-05T04:12:33.562Z,23.60
2022-08-05T04:15:24.472Z,23.60
2022-08-05T04:18:09.309Z,23.60
2022-08-05T04:21:01.461Z,23.60
2022-08-05T04:24:05.998Z,23.60
2022-08-05T04:26:50.478Z,23.60
2022-08-05T04:29:37.493Z,23.50
2022-08-05T04:32:30.690Z,23.50
2022-08-05T04:35:19.508Z,23.50
2022-08-05T04:38:02.555Z,23.50
2022-08-05T04:40:54.467Z,23.50
2022-08-05T04:43:35.010Z,23.50
2022-08-05T04:46:27.833Z,23.50
2022-08-05T04:49:21.486Z,23.50
2022-08-05T04:52:24.479Z,23.50
2022-08-05T04:55:15.065Z,23.50
2022-08-05T04:58:02.475Z,23.50
2022-08-05T05:00:50.842Z,23.50
2022-08-05T05:03:41.856Z,23.50
2022-08-05T05:06:36.044Z,23.50
2022-08-05T05:09:27.549Z,23.50
2022-08-05T05:12:08.472Z,23.50
2022-08-05T05:14:55.497Z,23.40
2022-08-05T05:17:57.179Z,23.40
2022-08-05T05:20:44.506Z,23.50
2022-08-05T05:24:02.398Z,23.50
2022-08-05T05:26:39.843Z,23.50
2022-08-05T05:29:25.487Z,23.50
2022-08-05T05:32:26.169Z,23.50
2022-08-05T05:35:12.489Z,23.50
2022-08-05T05:38:09.397Z,23.50
2022-08-05T05:40:53.495Z,23.60
2022-08-05T05:43:57.478Z,23.60
2022-08-05T05:46:46.492Z,23.60
2022-08-05T05:49:34.488Z,23.60
2022-08-05T05:52:28.333Z,23.60
2022-08-05T05:55:14.048Z,23.70
2022-08-05T05:58:01.826Z,23.70
2022-08-05T06:00:48.510Z,23.70
2022-08-05T06:03:53.585Z,23.80
2022-08-05T06:06:47.639Z,23.80
2022-08-05T06:09:52.651Z,23.80
2022-08-05T06:12:35.512Z,23.90
2022-08-05T06:16:30.805Z,23.90
2022-08-05T06:18:31.148Z,24.00
2022-08-05T06:21:18.909Z,24.10
2022-08-05T06:24:11.383Z,24.20
2022-08-05T06:27:00.501Z,24.20
2022-08-05T06:30:04.259Z,24.30
2022-08-05T06:32:54.494Z,24.30
2022-08-05T06:36:07.449Z,24.40
2022-08-05T06:38:47.030Z,24.40
2022-08-05T06:41:34.773Z,24.40
2022-08-05T06:44:22.153Z,24.50
2022-08-05T06:47:10.353Z,24.60
2022-08-05T06:50:08.589Z,24.60
2022-08-05T06:53:11.704Z,24.70
2022-08-05T06:56:06.647Z,24.70
2022-08-05T06:59:13.522Z,24.70
2022-08-05T07:02:01.503Z,24.80
2022-08-05T07:04:48.534Z,24.90
2022-08-05T07:07:35.482Z,25.00
2022-08-05T07:10:32.724Z,25.00
2022-08-05T07:13:46.365Z,25.10
2022-08-05T07:18:00.013Z,25.10
2022-08-05T07:23:04.687Z,25.40
2022-08-05T07:25:56.508Z,25.50
2022-08-05T07:28:43.577Z,25.60
2022-08-05T07:31:41.024Z,25.70
2022-08-05T07:34:42.273Z,25.90
2022-08-05T07:37:22.692Z,26.30
2022-08-05T07:40:31.835Z,26.70
2022-08-05T07:43:20.257Z,27.10
2022-08-05T07:46:24.406Z,27.60
2022-08-05T07:49:12.326Z,27.90
2022-08-05T07:51:53.878Z,28.30
2022-08-05T07:54:41.241Z,28.60
2022-08-05T07:57:57.531Z,28.80
2022-08-05T08:00:41.635Z,29.10
2022-08-05T08:03:21.670Z,29.10
2022-08-05T08:06:02.023Z,29.20
2022-08-05T08:08:49.502Z,29.30
2022-08-05T08:11:47.665Z,29.40
2022-08-05T08:14:33.509Z,29.40
2022-08-05T08:17:15.838Z,29.40
2022-08-05T08:20:22.669Z,29.00
2022-08-05T08:24:00.068Z,28.70
2022-08-05T08:26:10.521Z,28.50
2022-08-05T08:28:59.836Z,28.40
2022-08-05T08:31:56.532Z,28.50
2022-08-05T08:34:37.057Z,28.50
2022-08-05T08:37:28.086Z,28.30
2022-08-05T08:40:14.517Z,28.20
2022-08-05T08:44:56.517Z,28.10
2022-08-05T08:46:10.098Z,28.20
2022-08-05T08:50:23.197Z,28.20
2022-08-05T08:52:18.514Z,28.30
2022-08-05T08:54:59.513Z,28.40
2022-08-05T08:57:58.520Z,28.50
2022-08-05T09:00:40.367Z,28.70
2022-08-05T09:03:28.525Z,28.90
2022-08-05T09:06:30.010Z,28.90
2022-08-05T09:09:10.542Z,28.90
2022-08-05T09:11:57.821Z,29.20
2022-08-05T09:14:56.346Z,29.50
2022-08-05T09:17:49.926Z,29.70
2022-08-05T09:20:37.299Z,29.60
2022-08-05T09:23:21.644Z,29.60
2022-08-05T09:26:24.530Z,29.60
2022-08-05T09:29:18.839Z,29.80
2022-08-05T09:32:41.970Z,29.80
2022-08-05T09:35:27.169Z,29.40
2022-08-05T09:38:18.368Z,28.90
2022-08-05T09:41:16.190Z,28.60
2022-08-05T09:43:55.558Z,28.40
2022-08-05T09:46:37.026Z,28.40
2022-08-05T09:49:57.042Z,28.30
2022-08-05T09:52:45.171Z,28.10
2022-08-05T09:55:57.570Z,27.90
2022-08-05T09:58:33.532Z,27.60
2022-08-05T10:01:31.880Z,27.30
2022-08-05T10:04:16.027Z,27.10
2022-08-05T10:06:58.836Z,26.90
2022-08-05T10:09:46.527Z,26.80
2022-08-05T10:12:58.442Z,26.80
2022-08-05T10:15:55.554Z,26.70
2022-08-05T10:18:50.534Z,26.60
2022-08-05T10:21:40.183Z,26.50
2022-08-05T10:24:21.593Z,26.60
2022-08-05T10:27:13.598Z,26.60
2022-08-05T10:30:06.403Z,26.70
2022-08-05T10:33:09.020Z,26.80
2022-08-05T10:35:59.969Z,27.00
2022-08-05T10:38:50.530Z,27.10
2022-08-05T10:41:47.350Z,27.20
2022-08-05T10:44:29.362Z,27.30
2022-08-05T10:47:31.317Z,27.20
2022-08-05T10:50:20.820Z,27.30
2022-08-05T10:53:33.573Z,27.60
2022-08-05T10:56:33.639Z,27.60
2022-08-05T11:00:03.258Z,27.60
2022-08-05T11:02:37.459Z,27.70
2022-08-05T11:05:19.122Z,27.60
2022-08-05T11:08:33.696Z,27.50
2022-08-05T11:11:53.043Z,27.50
2022-08-05T11:14:57.693Z,27.50
2022-08-05T11:17:59.347Z,27.30
2022-08-05T11:20:51.358Z,27.10
2022-08-05T11:24:04.359Z,26.90
2022-08-05T11:26:43.374Z,26.90
2022-08-05T11:29:47.563Z,26.80
2022-08-05T11:32:35.025Z,26.80
2022-08-05T11:36:08.002Z,26.80
2022-08-05T11:38:51.748Z,26.70
2022-08-05T11:42:01.446Z,26.60
2022-08-05T11:44:53.603Z,26.70
2022-08-05T11:47:50.528Z,26.70
2022-08-05T11:50:44.550Z,26.70
2022-08-05T11:53:38.853Z,26.60
2022-08-05T11:56:22.889Z,26.50
2022-08-05T11:59:49.416Z,26.40
2022-08-05T12:02:41.555Z,26.30
2022-08-05T12:05:36.265Z,26.40
2022-08-05T12:08:26.566Z,26.30
2022-08-05T12:11:09.659Z,26.20
2022-08-05T12:14:04.634Z,26.10
2022-08-05T12:16:56.548Z,26.10
2022-08-05T12:20:26.548Z,26.20
2022-08-05T12:22:59.567Z,26.20
2022-08-05T12:26:00.582Z,26.10
2022-08-05T12:28:44.752Z,26.10
2022-08-05T12:31:43.671Z,26.00
2022-08-05T12:34:31.075Z,26.10
2022-08-05T12:37:21.769Z,26.10
2022-08-05T12:40:11.303Z,26.20
2022-08-05T12:43:20.633Z,26.20
2022-08-05T12:46:02.629Z,26.10
2022-08-05T12:48:49.581Z,26.10
2022-08-05T12:52:13.457Z,26.00
2022-08-05T12:54:39.604Z,25.90
2022-08-05T12:57:19.738Z,25.90
2022-08-05T13:02:02.674Z,26.00
2022-08-05T13:03:12.205Z,26.00
2022-08-05T13:06:02.587Z,26.10
2022-08-05T13:08:50.884Z,26.00
2022-08-05T13:12:01.517Z,26.00
2022-08-05T13:14:43.702Z,25.90
2022-08-05T13:17:41.521Z,26.00
2022-08-05T13:20:25.285Z,25.90
2022-08-05T13:23:13.600Z,25.90
2022-08-05T13:26:01.373Z,26.00
2022-08-05T13:28:48.612Z,26.00
2022-08-05T13:32:04.255Z,26.00
2022-08-05T13:34:47.161Z,26.00
2022-08-05T13:37:34.973Z,26.00
2022-08-05T13:40:36.693Z,25.90
2022-08-05T13:43:23.602Z,25.90
2022-08-05T13:47:04.986Z,25.90
2022-08-05T13:49:59.593Z,25.90
2022-08-05T13:52:46.578Z,26.00
2022-08-05T13:55:41.515Z,26.00
2022-08-05T13:58:35.576Z,26.00
2022-08-05T14:01:44.113Z,26.00
2022-08-05T14:04:49.120Z,25.90
2022-08-05T14:08:00.083Z,25.90
2022-08-05T14:10:45.591Z,25.80
2022-08-05T14:13:32.579Z,25.80
2022-08-05T14:16:16.827Z,25.80
2022-08-05T14:19:04.414Z,25.80
2022-08-05T14:22:11.613Z,25.70
2022-08-05T14:24:51.601Z,25.70
2022-08-05T14:27:31.654Z,25.70
2022-08-05T14:30:19.065Z,25.80
2022-08-05T14:33:00.673Z,25.80
2022-08-05T14:35:50.286Z,25.90
2022-08-05T14:38:34.095Z,25.90
2022-08-05T14:41:22.618Z,25.80
2022-08-05T14:44:09.996Z,25.80
2022-08-05T14:47:07.608Z,25.80
2022-08-05T14:49:59.423Z,25.70
2022-08-05T14:52:52.344Z,25.70
2022-08-05T14:55:40.229Z,25.60
2022-08-05T14:58:19.590Z,25.60
2022-08-05T15:01:01.397Z,25.60
2022-08-05T15:03:48.619Z,25.60
2022-08-05T15:06:30.295Z,25.60
2022-08-05T15:09:19.438Z,25.70
2022-08-05T15:12:24.646Z,25.70
2022-08-05T15:15:10.781Z,25.70
2022-08-05T15:17:56.198Z,25.60
2022-08-05T15:20:42.620Z,25.50
2022-08-05T15:23:29.699Z,25.60
2022-08-05T15:26:09.629Z,25.40
2022-08-05T15:28:52.014Z,25.30
2022-08-05T15:31:38.599Z,25.30
2022-08-05T15:34:32.491Z,25.20
2022-08-05T15:37:14.680Z,25.30
2022-08-05T15:40:59.810Z,25.30
2022-08-05T15:43:03.704Z,25.30
2022-08-05T15:46:00.407Z,25.20
2022-08-05T15:48:52.764Z,25.20
2022-08-05T15:52:04.023Z,25.20
2022-08-05T15:54:45.678Z,25.20
2022-08-05T15:57:33.076Z,25.30
2022-08-05T16:00:26.351Z,25.30
2022-08-05T16:03:24.602Z,25.30
2022-08-05T16:06:04.731Z,25.30
2022-08-05T16:08:53.568Z,25.20
2022-08-05T16:11:43.036Z,25.10
2022-08-05T16:14:30.613Z,25.10
2022-08-05T16:17:10.686Z,25.10
2022-08-05T16:20:03.095Z,25.00
2022-08-05T16:22:45.926Z,25.10
2022-08-05T16:25:34.639Z,25.00
2022-08-05T16:28:15.614Z,25.00
2022-08-05T16:31:02.630Z,25.00
2022-08-05T16:33:42.681Z,24.90
2022-08-05T16:36:29.601Z,24.90
2022-08-05T16:39:09.792Z,24.90
2022-08-05T16:42:14.978Z,24.90
2022-08-05T16:44:57.697Z,24.90
2022-08-05T16:47:48.823Z,24.90
2022-08-05T16:50:42.720Z,24.90
2022-08-05T16:53:32.795Z,24.90
2022-08-05T16:56:29.905Z,24.90
2022-08-05T16:59:15.720Z,24.90
2022-08-05T17:01:57.226Z,24.90
2022-08-05T17:04:43.638Z,24.80
2022-08-05T17:07:39.378Z,24.90
2022-08-05T17:10:30.673Z,24.80
2022-08-05T17:13:16.820Z,24.80
2022-08-05T17:16:28.098Z,24.80
2022-08-05T17:19:09.414Z,24.70
2022-08-05T17:21:57.636Z,24.70
2022-08-05T17:24:40.503Z,24.60
2022-08-05T17:27:33.759Z,24.60
2022-08-05T17:30:28.822Z,24.60
2022-08-05T17:33:08.645Z,24.50
2022-08-05T17:36:08.682Z,24.50
2022-08-05T17:38:55.718Z,24.50
2022-08-05T17:42:18.393Z,24.40
2022-08-05T17:44:42.660Z,24.40
2022-08-05T17:47:44.654Z,24.40
2022-08-05T17:50:45.655Z,24.40
2022-08-05T17:53:29.782Z,24.40
2022-08-05T17:56:19.634Z,24.40
2022-08-05T17:59:09.668Z,24.40
2022-08-05T18:01:50.407Z,24.40
2022-08-05T18:04:51.315Z,24.30
2022-08-05T18:07:41.470Z,24.30
2022-08-05T18:10:28.706Z,24.30
2022-08-05T18:13:12.443Z,24.20
2022-08-05T18:15:59.721Z,24.20
2022-08-05T18:18:48.065Z,24.20
2022-08-05T18:22:09.591Z,24.20
2022-08-05T18:24:37.652Z,24.20
2022-08-05T18:27:19.276Z,24.20
2022-08-05T18:30:05.648Z,24.20
2022-08-05T18:33:00.256Z,24.20
2022-08-05T18:36:00.122Z,24.10
2022-08-05T18:38:45.134Z,24.10
2022-08-05T18:41:56.809Z,24.10
2022-08-05T18:44:35.125Z,24.10
2022-08-05T18:47:35.665Z,24.00
2022-08-05T18:50:49.635Z,24.00
2022-08-05T18:53:43.052Z,24.00
2022-08-05T18:56:25.658Z,23.90
2022-08-05T18:59:43.059Z,23.90
2022-08-05T19:02:28.311Z,23.90
2022-08-05T19:06:06.041Z,23.90
2022-08-05T19:08:19.676Z,23.90
2022-08-05T19:11:08.665Z,23.90
2022-08-05T19:14:00.740Z,23.90
2022-08-05T19:16:51.641Z,23.90
2022-08-05T19:19:38.650Z,23.80
2022-08-05T19:22:33.708Z,23.80
2022-08-05T19:25:29.630Z,23.80
2022-08-05T19:28:17.670Z,23.70
2022-08-05T19:30:57.705Z,23.70
2022-08-05T19:33:48.619Z,23.70
2022-08-05T19:36:37.237Z,23.70
2022-08-05T19:39:24.707Z,23.70
2022-08-05T19:42:15.315Z,23.70
2022-08-05T19:44:55.142Z,23.70
2022-08-05T19:47:42.652Z,23.60
2022-08-05T19:50:31.174Z,23.60
2022-08-05T19:53:17.652Z,23.60
2022-08-05T19:56:32.563Z,23.60
2022-08-05T19:59:55.367Z,23.60
2022-08-05T20:02:31.443Z,23.60
2022-08-05T20:05:16.618Z,23.60
2022-08-05T20:08:10.829Z,23.60
2022-08-05T20:10:50.650Z,23.50
2022-08-05T20:13:58.744Z,23.50
2022-08-05T20:16:37.658Z,23.50
2022-08-05T20:19:18.177Z,23.40
2022-08-05T20:22:04.932Z,23.40
2022-08-05T20:24:51.759Z,23.40
2022-08-05T20:27:41.608Z,23.30
2022-08-05T20:30:30.217Z,23.30
2022-08-05T20:33:09.659Z,23.10
2022-08-05T20:35:51.372Z,23.10
2022-08-05T20:38:37.680Z,23.00
2022-08-05T20:41:43.175Z,22.90
2022-08-05T20:44:30.222Z,22.90
2022-08-05T20:47:17.657Z,22.90
2022-08-05T20:49:58.708Z,22.80
2022-08-05T20:52:47.668Z,22.80
2022-08-05T20:56:08.019Z,22.80
2022-08-05T20:58:35.658Z,22.80
2022-08-05T21:01:16.783Z,22.70
2022-08-05T21:04:03.650Z,22.70
2022-08-05T21:06:51.686Z,22.60
2022-08-05T21:09:33.718Z,22.50
2022-08-05T21:12:20.689Z,22.50
2022-08-05T21:15:01.162Z,22.50
2022-08-05T21:17:47.666Z,22.40
2022-08-05T21:20:34.661Z,22.40
2022-08-05T21:23:14.769Z,22.40
2022-08-05T21:26:04.197Z,22.40
2022-08-05T21:28:51.709Z,22.40
2022-08-05T21:31:41.466Z,22.30
2022-08-05T21:34:22.990Z,22.30
2022-08-05T21:37:11.679Z,22.30
2022-08-05T21:39:59.675Z,22.30
2022-08-05T21:42:47.285Z,22.30
2022-08-05T21:45:51.603Z,22.20
2022-08-05T21:48:41.656Z,22.20
2022-08-05T21:52:22.219Z,22.20
2022-08-05T21:54:31.104Z,22.10
2022-08-05T21:57:33.021Z,22.10
2022-08-05T22:00:15.782Z,22.10
2022-08-05T22:03:02.666Z,22.10
2022-08-05T22:05:49.144Z,22.10
2022-08-05T22:08:35.655Z,22.10
2022-08-05T22:11:17.714Z,22.00
2022-08-05T22:14:31.452Z,22.00
2022-08-05T22:17:05.285Z,22.00
2022-08-05T22:20:01.069Z,22.00
2022-08-05T22:23:03.492Z,21.90
2022-08-05T22:26:22.669Z,21.90
2022-08-05T22:29:03.848Z,21.90
2022-08-05T22:31:55.315Z,21.90
2022-08-05T22:34:39.683Z,21.90
2022-08-05T22:37:58.031Z,21.80
2022-08-05T22:40:34.656Z,21.80
2022-08-05T22:43:15.169Z,21.70
2022-08-05T22:46:08.810Z,21.80
2022-08-05T22:48:59.652Z,21.70
2022-08-05T22:52:06.327Z,21.70
2022-08-05T22:54:53.977Z,21.70
2022-08-05T22:57:36.533Z,21.70
2022-08-05T23:00:24.771Z,21.70
2022-08-05T23:03:07.742Z,21.70
2022-08-05T23:05:54.670Z,21.60
2022-08-05T23:08:34.725Z,21.60
2022-08-05T23:11:22.650Z,21.50
2022-08-05T23:14:02.743Z,21.50
2022-08-05T23:17:08.673Z,21.50
2022-08-05T23:19:58.650Z,21.50
2022-08-05T23:22:39.384Z,21.50
2022-08-05T23:25:52.145Z,21.40
2022-08-05T23:28:28.640Z,21.40
2022-08-05T23:31:17.989Z,21.40
2022-08-05T23:34:06.756Z,21.40
2022-08-05T23:36:53.678Z,21.40
2022-08-05T23:39:53.747Z,21.40
2022-08-05T23:42:35.036Z,21.40
2022-08-05T23:45:23.718Z,21.40
2022-08-05T23:48:04.753Z,21.40
2022-08-05T23:50:58.723Z,21.40
2022-08-05T23:53:46.541Z,21.40
2022-08-05T23:56:33.683Z,21.40
2022-08-05T23:59:21.697Z,21.40
